createdAt,value
2016-07-19T00:00:25.646Z,0
2016-07-19T00:01:26.327Z,0
2016-07-19T00:02:24.904Z,0
2016-07-19T00:03:24.897Z,0
2016-07-19T00:04:26.289Z,0
2016-07-19T00:05:24.874Z,0
2016-07-19T00:06:27.686Z,0
2016-07-19T00:07:24.859Z,0
2016-07-19T00:08:26.306Z,0
2016-07-19T00:09:25.553Z,0
2016-07-19T00:10:26.244Z,0
2016-07-19T00:11:25.521Z,0
2016-07-19T00:12:25.519Z,0
2016-07-19T00:13:26.219Z,0
2016-07-19T00:14:26.905Z,0
2016-07-19T00:15:25.492Z,0
2016-07-19T00:16:24.762Z,0
2016-07-19T00:17:26.881Z,0
2016-07-19T00:18:26.860Z,0
2016-07-19T00:19:26.151Z,0
2016-07-19T00:20:26.895Z,0
2016-07-19T00:21:24.727Z,0
2016-07-19T00:22:26.132Z,0
2016-07-19T00:23:26.163Z,0
2016-07-19T00:24:26.109Z,0
2016-07-19T00:25:25.434Z,0
2016-07-19T00:26:25.377Z,0
2016-07-19T00:27:26.073Z,0
2016-07-19T00:28:24.749Z,0
2016-07-19T00:29:26.052Z,0
2016-07-19T00:30:26.756Z,0
2016-07-19T00:31:25.330Z,0
2016-07-19T00:32:26.039Z,0
2016-07-19T00:33:25.312Z,0
2016-07-19T00:34:25.303Z,0
2016-07-19T00:35:26.198Z,0
2016-07-19T00:36:27.419Z,0
2016-07-19T00:37:25.982Z,0
2016-07-19T00:38:25.969Z,0
2016-07-19T00:39:27.380Z,0
2016-07-19T00:40:27.367Z,0
2016-07-19T00:41:26.698Z,0
2016-07-19T00:42:27.357Z,0
2016-07-19T00:43:25.224Z,0
2016-07-19T00:44:25.250Z,0
2016-07-19T00:45:25.907Z,0
2016-07-19T00:46:26.600Z,0
2016-07-19T00:47:25.888Z,0
2016-07-19T00:48:26.635Z,0
2016-07-19T00:49:26.570Z,0
2016-07-19T00:50:25.856Z,0
2016-07-19T00:51:25.146Z,0
2016-07-19T00:52:25.131Z,0
2016-07-19T00:53:27.238Z,0
2016-07-19T00:54:24.400Z,0
2016-07-19T00:55:25.806Z,0
2016-07-19T00:56:25.796Z,0
2016-07-19T00:57:25.090Z,0
2016-07-19T00:58:25.776Z,0
2016-07-19T00:59:27.177Z,0
2016-07-19T01:00:25.760Z,0
2016-07-19T01:01:25.040Z,0
2016-07-19T01:02:25.738Z,0
2016-07-19T01:03:25.025Z,0
2016-07-19T01:04:26.431Z,0
2016-07-19T01:05:25.005Z,0
2016-07-19T01:06:24.286Z,0
2016-07-19T01:07:24.274Z,0
2016-07-19T01:08:24.366Z,0
2016-07-19T01:09:25.667Z,0
2016-07-19T01:10:25.653Z,0
2016-07-19T01:11:26.352Z,0
2016-07-19T01:12:26.351Z,0
2016-07-19T01:13:25.624Z,0
2016-07-19T01:14:26.337Z,0
2016-07-19T01:15:25.611Z,0
2016-07-19T01:16:24.894Z,0
2016-07-19T01:17:25.592Z,0
2016-07-19T01:18:24.879Z,0
2016-07-19T01:19:24.860Z,0
2016-07-19T01:20:24.849Z,0
2016-07-19T01:21:25.552Z,0
2016-07-19T01:22:24.830Z,0
2016-07-19T01:23:25.526Z,0
2016-07-19T01:24:24.816Z,0
2016-07-19T01:25:26.225Z,0
2016-07-19T01:26:25.494Z,0
2016-07-19T01:27:24.784Z,0
2016-07-19T01:28:26.185Z,0
2016-07-19T01:29:24.762Z,0
2016-07-19T01:30:24.051Z,0
2016-07-19T01:31:25.538Z,0
2016-07-19T01:32:25.447Z,0
2016-07-19T01:33:26.135Z,0
2016-07-19T01:34:24.769Z,0
2016-07-19T01:35:26.115Z,0
2016-07-19T01:36:24.687Z,0
2016-07-19T01:37:23.972Z,0
2016-07-19T01:38:24.675Z,0
2016-07-19T01:39:24.655Z,0
2016-07-19T01:40:26.061Z,0
2016-07-19T01:41:24.647Z,0
2016-07-19T01:42:23.924Z,0
2016-07-19T01:43:24.621Z,0
2016-07-19T01:44:23.928Z,0
2016-07-19T01:45:25.312Z,0
2016-07-19T01:46:26.059Z,0
2016-07-19T01:47:24.576Z,0
2016-07-19T01:48:23.885Z,0
2016-07-19T01:49:24.560Z,0
2016-07-19T01:50:24.552Z,0
2016-07-19T01:51:24.533Z,0
2016-07-19T01:52:24.525Z,0
2016-07-19T01:53:25.219Z,0
2016-07-19T01:54:25.920Z,0
2016-07-19T01:55:25.253Z,0
2016-07-19T01:56:25.902Z,0
2016-07-19T01:57:24.481Z,0
2016-07-19T01:58:25.879Z,0
2016-07-19T01:59:24.461Z,0
2016-07-19T02:00:24.453Z,0
2016-07-19T02:01:25.145Z,0
2016-07-19T02:02:24.428Z,0
2016-07-19T02:03:24.420Z,0
2016-07-19T02:04:26.522Z,0
2016-07-19T02:05:25.100Z,0
2016-07-19T02:06:24.387Z,0
2016-07-19T02:07:25.081Z,0
2016-07-19T02:08:25.073Z,0
2016-07-19T02:09:23.643Z,0
2016-07-19T02:10:24.338Z,0
2016-07-19T02:11:25.032Z,0
2016-07-19T02:12:24.321Z,0
2016-07-19T02:13:25.024Z,0
2016-07-19T02:14:23.591Z,0
2016-07-19T02:15:24.284Z,0
2016-07-19T02:16:26.411Z,0
2016-07-19T02:17:23.571Z,0
2016-07-19T02:18:25.672Z,0
2016-07-19T02:19:24.960Z,0
2016-07-19T02:20:25.647Z,0
2016-07-19T02:21:24.230Z,0
2016-07-19T02:22:24.212Z,0
2016-07-19T02:23:25.625Z,0
2016-07-19T02:24:24.194Z,0
2016-07-19T02:25:23.476Z,0
2016-07-19T02:26:24.881Z,0
2016-07-19T02:27:25.575Z,0
2016-07-19T02:28:24.860Z,0
2016-07-19T02:29:24.858Z,0
2016-07-19T02:30:24.127Z,0
2016-07-19T02:31:24.120Z,0
2016-07-19T02:32:24.165Z,0
2016-07-19T02:33:25.513Z,0
2016-07-19T02:34:24.097Z,0
2016-07-19T02:35:24.987Z,0
2016-07-19T02:36:24.780Z,0
2016-07-19T02:37:24.052Z,0
2016-07-19T02:38:23.340Z,0
2016-07-19T02:39:24.741Z,0
2016-07-19T02:40:26.149Z,0
2016-07-19T02:41:24.009Z,0
2016-07-19T02:42:23.307Z,0
2016-07-19T02:43:24.718Z,0
2016-07-19T02:44:25.403Z,0
2016-07-19T02:45:24.684Z,0
2016-07-19T02:46:24.692Z,0
2016-07-19T02:47:23.954Z,0
2016-07-19T02:48:24.643Z,0
2016-07-19T02:49:24.641Z,0
2016-07-19T02:50:23.919Z,0
2016-07-19T02:51:24.616Z,0
2016-07-19T02:52:24.613Z,0
2016-07-19T02:53:23.891Z,0
2016-07-19T02:54:24.579Z,0
2016-07-19T02:55:23.864Z,0
2016-07-19T02:56:25.281Z,0
2016-07-19T02:57:24.559Z,0
2016-07-19T02:58:24.552Z,0
2016-07-19T02:59:24.574Z,0
2016-07-19T03:00:23.820Z,0
2016-07-19T03:01:23.807Z,0
2016-07-19T03:02:24.501Z,0
2016-07-19T03:03:23.774Z,0
2016-07-19T03:04:25.200Z,0
2016-07-19T03:05:24.462Z,0
2016-07-19T03:06:24.466Z,0
2016-07-19T03:07:24.470Z,0
2016-07-19T03:08:25.173Z,0
2016-07-19T03:09:24.429Z,0
2016-07-19T03:10:24.411Z,0
2016-07-19T03:11:24.401Z,0
2016-07-19T03:12:25.092Z,0
2016-07-19T03:13:24.395Z,0
2016-07-19T03:14:24.365Z,0
2016-07-19T03:15:24.359Z,0
2016-07-19T03:16:23.639Z,0
2016-07-19T03:17:24.339Z,0
2016-07-19T03:18:23.618Z,0
2016-07-19T03:19:25.022Z,0
2016-07-19T03:20:24.304Z,0
2016-07-19T03:21:23.585Z,0
2016-07-19T03:22:25.699Z,0
2016-07-19T03:23:25.706Z,0
2016-07-19T03:24:24.259Z,0
2016-07-19T03:25:22.830Z,0
2016-07-19T03:26:24.236Z,0
2016-07-19T03:27:24.254Z,0
2016-07-19T03:28:23.512Z,0
2016-07-19T03:29:24.909Z,0
2016-07-19T03:30:24.197Z,0
2016-07-19T03:31:23.485Z,0
2016-07-19T03:32:23.460Z,0
2016-07-19T03:33:23.456Z,0
2016-07-19T03:34:24.144Z,0
2016-07-19T03:35:24.145Z,0
2016-07-19T03:36:24.832Z,5
2016-07-19T03:37:24.116Z,5
2016-07-19T03:38:24.102Z,5
2016-07-19T03:39:24.089Z,5
2016-07-19T03:40:24.085Z,5
2016-07-19T03:41:23.358Z,5
2016-07-19T03:42:24.058Z,5
2016-07-19T03:43:23.340Z,5
2016-07-19T03:44:23.332Z,5
2016-07-19T03:45:24.031Z,5
2016-07-19T03:46:23.307Z,5
2016-07-19T03:47:23.301Z,5
2016-07-19T03:48:22.572Z,10
2016-07-19T03:49:24.032Z,10
2016-07-19T03:50:23.267Z,10
2016-07-19T03:51:23.975Z,10
2016-07-19T03:52:24.658Z,10
2016-07-19T03:53:23.949Z,10
2016-07-19T03:54:23.928Z,10
2016-07-19T03:55:24.624Z,10
2016-07-19T03:56:23.199Z,10
2016-07-19T03:57:23.948Z,15
2016-07-19T03:58:25.293Z,15
2016-07-19T03:59:23.165Z,15
2016-07-19T04:00:23.859Z,15
2016-07-19T04:01:23.852Z,15
2016-07-19T04:02:23.833Z,15
2016-07-19T04:03:23.828Z,15
2016-07-19T04:04:23.812Z,15
2016-07-19T04:05:23.808Z,15
2016-07-19T04:06:23.788Z,20
2016-07-19T04:07:23.077Z,20
2016-07-19T04:08:24.486Z,20
2016-07-19T04:09:23.062Z,20
2016-07-19T04:10:23.747Z,20
2016-07-19T04:11:23.740Z,20
2016-07-19T04:12:23.725Z,20
2016-07-19T04:13:22.298Z,20
2016-07-19T04:14:23.709Z,20
2016-07-19T04:15:24.398Z,25
2016-07-19T04:16:24.392Z,25
2016-07-19T04:17:22.965Z,25
2016-07-19T04:18:23.659Z,25
2016-07-19T04:19:22.953Z,25
2016-07-19T04:20:23.640Z,25
2016-07-19T04:21:24.340Z,25
2016-07-19T04:22:22.922Z,25
2016-07-19T04:23:22.910Z,25
2016-07-19T04:24:22.889Z,25
2016-07-19T04:25:22.877Z,30
2016-07-19T04:26:23.577Z,30
2016-07-19T04:27:23.664Z,30
2016-07-19T04:28:23.548Z,30
2016-07-19T04:29:23.540Z,30
2016-07-19T04:30:22.829Z,30
2016-07-19T04:31:22.814Z,30
2016-07-19T04:32:22.090Z,30
2016-07-19T04:33:23.512Z,30
2016-07-19T04:34:24.199Z,30
2016-07-19T04:35:22.968Z,30
2016-07-19T04:36:22.758Z,35
2016-07-19T04:37:23.451Z,35
2016-07-19T04:38:23.455Z,35
2016-07-19T04:39:23.430Z,35
2016-07-19T04:40:22.714Z,35
2016-07-19T04:41:22.704Z,35
2016-07-19T04:42:22.694Z,35
2016-07-19T04:43:24.095Z,35
2016-07-19T04:44:23.377Z,35
2016-07-19T04:45:22.667Z,35
2016-07-19T04:46:21.988Z,35
2016-07-19T04:47:24.992Z,35
2016-07-19T04:48:22.636Z,40
2016-07-19T04:49:23.325Z,40
2016-07-19T04:50:22.605Z,40
2016-07-19T04:51:22.597Z,40
2016-07-19T04:52:21.930Z,40
2016-07-19T04:53:22.575Z,40
2016-07-19T04:54:23.268Z,40
2016-07-19T04:55:22.564Z,40
2016-07-19T04:56:21.836Z,40
2016-07-19T04:57:22.524Z,40
2016-07-19T04:58:23.226Z,40
2016-07-19T04:59:23.924Z,40
2016-07-19T05:00:22.523Z,40
2016-07-19T05:01:23.902Z,40
2016-07-19T05:02:22.497Z,45
2016-07-19T05:03:22.469Z,45
2016-07-19T05:04:23.167Z,45
2016-07-19T05:05:22.447Z,45
2016-07-19T05:06:23.858Z,45
2016-07-19T05:07:23.894Z,45
2016-07-19T05:08:22.427Z,45
2016-07-19T05:09:23.107Z,45
2016-07-19T05:10:22.414Z,45
2016-07-19T05:11:23.097Z,45
2016-07-19T05:12:24.486Z,45
2016-07-19T05:13:22.370Z,45
2016-07-19T05:14:21.649Z,45
2016-07-19T05:15:23.754Z,45
2016-07-19T05:16:23.744Z,45
2016-07-19T05:17:23.038Z,50
2016-07-19T05:18:23.023Z,50
2016-07-19T05:19:22.294Z,50
2016-07-19T05:20:21.577Z,50
2016-07-19T05:21:21.569Z,50
2016-07-19T05:22:23.728Z,50
2016-07-19T05:23:21.541Z,50
2016-07-19T05:24:24.365Z,50
2016-07-19T05:25:22.228Z,50
2016-07-19T05:26:23.652Z,50
2016-07-19T05:27:23.623Z,50
2016-07-19T05:28:22.912Z,50
2016-07-19T05:29:23.608Z,50
2016-07-19T05:30:22.943Z,50
2016-07-19T05:31:22.165Z,50
2016-07-19T05:32:21.456Z,50
2016-07-19T05:33:23.565Z,55
2016-07-19T05:34:22.140Z,55
2016-07-19T05:35:21.425Z,55
2016-07-19T05:36:22.833Z,55
2016-07-19T05:37:21.395Z,55
2016-07-19T05:38:22.812Z,55
2016-07-19T05:39:21.380Z,55
2016-07-19T05:40:22.781Z,55
2016-07-19T05:41:23.253Z,55
2016-07-19T05:42:22.776Z,55
2016-07-19T05:43:22.050Z,55
2016-07-19T05:44:23.455Z,55
2016-07-19T05:45:22.733Z,55
2016-07-19T05:46:23.435Z,55
2016-07-19T05:47:23.420Z,55
2016-07-19T05:48:21.294Z,55
2016-07-19T05:49:22.708Z,55
2016-07-19T05:50:22.734Z,55
2016-07-19T05:51:22.680Z,60
2016-07-19T05:52:22.670Z,60
2016-07-19T05:53:21.962Z,60
2016-07-19T05:54:21.945Z,60
2016-07-19T05:55:21.226Z,60
2016-07-19T05:56:22.626Z,60
2016-07-19T05:57:21.904Z,60
2016-07-19T05:58:22.611Z,60
2016-07-19T05:59:21.887Z,60
2016-07-19T06:00:21.886Z,60
2016-07-19T06:01:22.582Z,60
2016-07-19T06:02:23.277Z,60
2016-07-19T06:03:21.159Z,60
2016-07-19T06:04:22.553Z,60
2016-07-19T06:05:21.857Z,60
2016-07-19T06:06:21.121Z,60
2016-07-19T06:07:21.826Z,60
2016-07-19T06:08:23.271Z,60
2016-07-19T06:09:23.211Z,60
2016-07-19T06:10:23.206Z,65
2016-07-19T06:11:22.483Z,65
2016-07-19T06:12:21.789Z,65
2016-07-19T06:13:22.467Z,65
2016-07-19T06:14:21.760Z,65
2016-07-19T06:15:21.032Z,65
2016-07-19T06:16:21.727Z,65
2016-07-19T06:17:21.722Z,65
2016-07-19T06:18:21.710Z,65
2016-07-19T06:19:22.407Z,65
2016-07-19T06:20:21.691Z,65
2016-07-19T06:21:22.393Z,65
2016-07-19T06:22:21.725Z,65
2016-07-19T06:23:21.667Z,65
2016-07-19T06:24:22.395Z,65
2016-07-19T06:25:22.358Z,65
2016-07-19T06:26:20.936Z,65
2016-07-19T06:27:22.355Z,65
2016-07-19T06:28:22.357Z,65
2016-07-19T06:29:22.319Z,70
2016-07-19T06:30:21.612Z,70
2016-07-19T06:31:21.595Z,65
2016-07-19T06:32:21.585Z,65
2016-07-19T06:33:20.866Z,65
2016-07-19T06:34:23.691Z,65
2016-07-19T06:35:23.883Z,65
2016-07-19T06:36:22.252Z,65
2016-07-19T06:37:21.555Z,65
2016-07-19T06:38:20.832Z,65
2016-07-19T06:39:22.997Z,65
2016-07-19T06:40:21.515Z,65
2016-07-19T06:41:20.810Z,65
2016-07-19T06:42:22.235Z,65
2016-07-19T06:43:20.786Z,65
2016-07-19T06:44:22.194Z,65
2016-07-19T06:45:21.471Z,65
2016-07-19T06:46:21.463Z,65
2016-07-19T06:47:20.743Z,65
2016-07-19T06:48:21.444Z,70
2016-07-19T06:49:20.724Z,70
2016-07-19T06:50:21.425Z,70
2016-07-19T06:51:22.201Z,70
2016-07-19T06:52:22.121Z,70
2016-07-19T06:53:21.401Z,70
2016-07-19T06:54:21.404Z,70
2016-07-19T06:55:21.394Z,70
2016-07-19T06:56:21.378Z,70
2016-07-19T06:57:20.659Z,70
2016-07-19T06:58:21.408Z,70
2016-07-19T06:59:21.367Z,70
2016-07-19T07:00:20.631Z,70
2016-07-19T07:01:22.749Z,75
2016-07-19T07:02:20.617Z,85
2016-07-19T07:03:22.022Z,85
2016-07-19T07:04:21.318Z,85
2016-07-19T07:05:21.303Z,85
2016-07-19T07:06:21.284Z,80
2016-07-19T07:07:20.579Z,80
2016-07-19T07:08:22.682Z,80
2016-07-19T07:09:22.678Z,80
2016-07-19T07:10:21.272Z,80
2016-07-19T07:11:22.667Z,80
2016-07-19T07:12:21.245Z,75
2016-07-19T07:13:21.242Z,75
2016-07-19T07:14:21.268Z,75
2016-07-19T07:15:21.934Z,75
2016-07-19T07:16:21.213Z,75
2016-07-19T07:17:20.501Z,75
2016-07-19T07:18:21.189Z,80
2016-07-19T07:19:21.904Z,80
2016-07-19T07:20:22.594Z,80
2016-07-19T07:21:21.184Z,80
2016-07-19T07:22:22.590Z,80
2016-07-19T07:23:22.568Z,80
2016-07-19T07:24:21.148Z,80
2016-07-19T07:25:21.844Z,80
2016-07-19T07:26:21.129Z,80
2016-07-19T07:27:21.829Z,80
2016-07-19T07:28:22.540Z,80
2016-07-19T07:29:21.102Z,80
2016-07-19T07:30:21.102Z,80
2016-07-19T07:31:22.512Z,80
2016-07-19T07:32:20.374Z,80
2016-07-19T07:33:21.082Z,80
2016-07-19T07:34:21.061Z,185
2016-07-19T07:35:21.764Z,950
2016-07-19T07:36:22.471Z,1475
2016-07-19T07:37:22.456Z,1425
2016-07-19T07:38:21.037Z,1405
2016-07-19T07:39:23.152Z,1435
2016-07-19T07:40:20.322Z,1450
2016-07-19T07:41:21.024Z,1475
2016-07-19T07:42:21.720Z,1480
2016-07-19T07:43:20.296Z,1480
2016-07-19T07:44:22.421Z,1510
2016-07-19T07:45:20.991Z,1535
2016-07-19T07:46:21.700Z,1575
2016-07-19T07:47:20.280Z,1585
2016-07-19T07:48:20.979Z,1510
2016-07-19T07:49:22.393Z,1425
2016-07-19T07:50:20.972Z,1440
2016-07-19T07:51:21.679Z,1510
2016-07-19T07:52:20.253Z,1530
2016-07-19T07:53:20.260Z,1510
2016-07-19T07:54:20.970Z,1435
2016-07-19T07:55:20.964Z,1420
2016-07-19T07:56:21.678Z,1470
2016-07-19T07:57:22.370Z,1490
2016-07-19T07:58:22.371Z,1490
2016-07-19T07:59:21.662Z,1500
2016-07-19T08:00:21.656Z,1515
2016-07-19T08:01:20.269Z,1540
2016-07-19T08:02:22.371Z,1565
2016-07-19T08:03:20.943Z,1575
2016-07-19T08:05:20.245Z,1525
2016-07-19T08:06:22.374Z,1480
2016-07-19T08:07:20.231Z,1490
2016-07-19T08:08:20.248Z,1525
2016-07-19T08:09:21.668Z,1570
2016-07-19T08:10:21.655Z,1575
2016-07-19T08:11:22.356Z,1555
2016-07-19T08:12:21.655Z,1555
2016-07-19T08:13:21.646Z,1620
2016-07-19T08:14:22.368Z,1725
2016-07-19T08:15:21.001Z,1770
2016-07-19T08:16:22.367Z,1775
2016-07-19T08:17:20.238Z,1770
2016-07-19T08:18:21.651Z,1780
2016-07-19T08:19:20.234Z,1810
2016-07-19T08:20:22.367Z,1815
2016-07-19T08:21:21.653Z,1765
2016-07-19T08:22:21.661Z,1725
2016-07-19T08:23:20.946Z,1705
2016-07-19T08:24:21.658Z,1710
2016-07-19T08:25:20.958Z,1710
2016-07-19T08:26:20.247Z,1675
2016-07-19T08:27:22.377Z,1705
2016-07-19T08:28:20.958Z,1805
2016-07-19T08:29:20.255Z,1855
2016-07-19T08:30:20.254Z,1850
2016-07-19T08:31:20.267Z,1880
2016-07-19T08:32:20.258Z,1890
2016-07-19T08:33:20.966Z,1830
2016-07-19T08:34:21.679Z,1725
2016-07-19T08:35:21.177Z,1615
2016-07-19T08:36:21.675Z,1560
2016-07-19T08:37:20.975Z,1590
2016-07-19T08:38:21.687Z,1700
2016-07-19T08:39:21.687Z,1835
2016-07-19T08:40:20.978Z,1895
2016-07-19T08:41:21.693Z,1825
2016-07-19T08:42:20.287Z,1680
2016-07-19T08:43:21.282Z,1590
2016-07-19T08:44:21.705Z,1635
2016-07-19T08:45:21.704Z,1785
2016-07-19T08:46:21.718Z,1870
2016-07-19T08:47:20.295Z,1950
2016-07-19T08:48:20.302Z,1770
2016-07-19T08:49:21.713Z,710
2016-07-19T08:50:21.724Z,375
2016-07-19T08:51:21.734Z,205
2016-07-19T08:52:20.306Z,180
2016-07-19T08:53:21.733Z,240
2016-07-19T08:54:21.023Z,425
2016-07-19T08:55:21.731Z,505
2016-07-19T08:56:21.874Z,760
2016-07-19T08:57:22.467Z,815
2016-07-19T08:58:21.743Z,1245
2016-07-19T08:59:21.056Z,1300
2016-07-19T09:00:21.749Z,485
2016-07-19T09:01:21.755Z,160
2016-07-19T09:02:21.033Z,175
2016-07-19T09:03:21.032Z,180
2016-07-19T09:04:20.335Z,145
2016-07-19T09:05:21.113Z,410
2016-07-19T09:06:21.045Z,605
2016-07-19T09:07:21.754Z,765
2016-07-19T09:08:21.748Z,685
2016-07-19T09:09:21.037Z,440
2016-07-19T09:10:21.041Z,210
2016-07-19T09:11:21.091Z,235
2016-07-19T09:12:21.770Z,160
2016-07-19T09:13:21.041Z,210
2016-07-19T09:14:21.781Z,330
2016-07-19T09:15:21.737Z,390
2016-07-19T09:16:21.093Z,245
2016-07-19T09:17:21.045Z,380
2016-07-19T09:18:21.737Z,255
2016-07-19T09:19:23.154Z,335
2016-07-19T09:20:21.739Z,365
2016-07-19T09:21:21.031Z,670
2016-07-19T09:22:21.024Z,1020
2016-07-19T09:23:20.315Z,1920
2016-07-19T09:24:20.321Z,1880
2016-07-19T09:25:21.022Z,1920
2016-07-19T09:26:21.720Z,2095
2016-07-19T09:27:21.745Z,1920
2016-07-19T09:28:21.016Z,1605
2016-07-19T09:29:20.307Z,1250
2016-07-19T09:30:20.312Z,1080
2016-07-19T09:31:21.019Z,800
2016-07-19T09:32:22.427Z,555
2016-07-19T09:33:21.019Z,820
2016-07-19T09:34:21.732Z,1550
2016-07-19T09:35:21.722Z,1775
2016-07-19T09:36:21.727Z,1950
2016-07-19T09:37:21.031Z,1995
2016-07-19T09:38:23.144Z,1450
2016-07-19T09:39:21.015Z,1030
2016-07-19T09:40:21.726Z,840
2016-07-19T09:41:21.015Z,510
2016-07-19T09:42:20.328Z,920
2016-07-19T09:43:21.729Z,1670
2016-07-19T09:44:21.015Z,1725
2016-07-19T09:45:21.023Z,1320
2016-07-19T09:46:21.736Z,1585
2016-07-19T09:47:21.728Z,1780
2016-07-19T09:48:21.019Z,1685
2016-07-19T09:49:21.734Z,1500
2016-07-19T09:50:21.738Z,1065
2016-07-19T09:51:21.032Z,870
2016-07-19T09:52:21.025Z,925
2016-07-19T09:53:21.032Z,600
2016-07-19T09:54:20.317Z,450
2016-07-19T09:55:21.024Z,435
2016-07-19T09:56:21.732Z,385
2016-07-19T09:57:21.030Z,205
2016-07-19T09:58:21.740Z,215
2016-07-19T09:59:21.736Z,275
2016-07-19T10:00:21.738Z,255
2016-07-19T10:01:23.167Z,385
2016-07-19T10:02:22.447Z,615
2016-07-19T10:03:21.027Z,410
2016-07-19T10:04:21.733Z,160
2016-07-19T10:05:20.326Z,180
2016-07-19T10:06:21.732Z,400
2016-07-19T10:07:21.730Z,330
2016-07-19T10:08:21.721Z,195
2016-07-19T10:09:21.026Z,230
2016-07-19T10:10:21.728Z,235
2016-07-19T10:11:20.311Z,630
2016-07-19T10:12:21.726Z,820
2016-07-19T10:13:21.021Z,965
2016-07-19T10:14:20.305Z,1650
2016-07-19T10:15:21.022Z,2050
2016-07-19T10:16:21.021Z,2215
2016-07-19T10:17:21.716Z,2160
2016-07-19T10:18:23.136Z,2120
2016-07-19T10:19:21.716Z,2130
2016-07-19T10:20:21.715Z,2145
2016-07-19T10:21:21.019Z,2160
2016-07-19T10:22:21.010Z,2170
2016-07-19T10:23:22.433Z,1830
2016-07-19T10:24:21.017Z,1260
2016-07-19T10:25:21.735Z,900
2016-07-19T10:26:21.727Z,925
2016-07-19T10:27:21.722Z,1430
2016-07-19T10:28:21.776Z,1960
2016-07-19T10:29:21.735Z,2300
2016-07-19T10:30:21.019Z,2280
2016-07-19T10:31:21.035Z,2285
2016-07-19T10:32:20.333Z,2340
2016-07-19T10:33:21.030Z,2415
2016-07-19T10:34:22.449Z,2450
2016-07-19T10:35:21.275Z,2430
2016-07-19T10:36:20.333Z,2360
2016-07-19T10:37:21.042Z,2295
2016-07-19T10:38:21.752Z,2215
2016-07-19T10:39:21.758Z,2165
2016-07-19T10:40:21.763Z,2185
2016-07-19T10:41:21.771Z,2270
2016-07-19T10:42:21.080Z,2355
2016-07-19T10:43:20.361Z,2380
2016-07-19T10:44:21.073Z,2375
2016-07-19T10:45:21.072Z,2385
2016-07-19T10:46:21.089Z,2370
2016-07-19T10:47:22.499Z,2375
2016-07-19T10:48:21.813Z,2375
2016-07-19T10:49:21.804Z,2375
2016-07-19T10:50:21.809Z,2365
2016-07-19T10:51:21.821Z,2360
2016-07-19T10:52:21.113Z,2360
2016-07-19T10:53:21.118Z,2355
2016-07-19T10:54:22.539Z,2385
2016-07-19T10:55:21.838Z,2400
2016-07-19T10:56:21.838Z,2370
2016-07-19T10:57:20.441Z,2330
2016-07-19T10:58:21.149Z,2320
2016-07-19T10:59:21.152Z,2315
2016-07-19T11:00:21.877Z,2315
2016-07-19T11:01:21.175Z,2325
2016-07-19T11:02:21.177Z,2335
2016-07-19T11:03:21.174Z,2300
2016-07-19T11:04:21.193Z,2280
2016-07-19T11:05:21.208Z,2270
2016-07-19T11:06:21.199Z,2235
2016-07-19T11:07:21.903Z,2245
2016-07-19T11:08:21.922Z,2235
2016-07-19T11:09:21.220Z,2220
2016-07-19T11:10:22.637Z,2235
2016-07-19T11:11:21.228Z,2200
2016-07-19T11:12:21.238Z,2070
2016-07-19T11:13:22.660Z,1925
2016-07-19T11:14:22.662Z,1755
2016-07-19T11:15:21.263Z,1685
2016-07-19T11:16:21.970Z,1795
2016-07-19T11:17:21.975Z,1965
2016-07-19T11:18:22.685Z,2140
2016-07-19T11:19:21.990Z,2330
2016-07-19T11:20:22.702Z,2460
2016-07-19T11:21:22.709Z,2470
2016-07-19T11:22:22.007Z,2410
2016-07-19T11:23:21.302Z,2355
2016-07-19T11:24:22.722Z,2285
2016-07-19T11:25:21.315Z,2240
2016-07-19T11:26:22.745Z,2250
2016-07-19T11:27:21.325Z,2250
2016-07-19T11:28:21.348Z,2225
2016-07-19T11:29:21.345Z,2245
2016-07-19T11:30:21.349Z,2305
2016-07-19T11:31:21.362Z,2380
2016-07-19T11:32:22.080Z,2470
2016-07-19T11:33:21.369Z,2460
2016-07-19T11:34:22.803Z,2410
2016-07-19T11:35:22.115Z,2345
2016-07-19T11:36:22.102Z,2305
2016-07-19T11:37:23.051Z,2300
2016-07-19T11:38:22.126Z,2315
2016-07-19T11:39:22.122Z,2350
2016-07-19T11:40:20.734Z,2360
2016-07-19T11:41:22.149Z,2355
2016-07-19T11:42:22.145Z,2330
2016-07-19T11:43:22.874Z,2290
2016-07-19T11:44:22.882Z,2310
2016-07-19T11:45:22.867Z,2340
2016-07-19T11:46:21.467Z,2320
2016-07-19T11:47:20.761Z,2320
2016-07-19T11:48:21.479Z,2300
2016-07-19T11:49:22.205Z,2285
2016-07-19T11:50:23.614Z,2310
2016-07-19T11:51:21.504Z,2295
2016-07-19T11:52:22.261Z,2310
2016-07-19T11:53:22.927Z,2330
2016-07-19T11:54:22.937Z,2330
2016-07-19T11:55:22.245Z,2360
2016-07-19T11:56:22.245Z,2350
2016-07-19T11:57:23.670Z,2315
2016-07-19T11:58:22.256Z,2340
2016-07-19T11:59:21.563Z,2385
2016-07-19T12:00:22.270Z,2430
2016-07-19T12:01:22.985Z,2465
2016-07-19T12:02:21.581Z,2440
2016-07-19T12:03:21.583Z,2400
2016-07-19T12:04:23.713Z,2385
2016-07-19T12:05:23.027Z,2345
2016-07-19T12:06:23.776Z,2335
2016-07-19T12:07:22.325Z,2335
2016-07-19T12:08:21.671Z,2350
2016-07-19T12:09:21.651Z,2315
2016-07-19T12:10:21.647Z,2290
2016-07-19T12:11:22.363Z,2260
2016-07-19T12:12:23.113Z,2245
2016-07-19T12:13:21.691Z,2240
2016-07-19T12:14:22.381Z,2235
2016-07-19T12:15:21.700Z,2235
2016-07-19T12:16:22.405Z,2215
2016-07-19T12:17:22.427Z,2180
2016-07-19T12:18:21.709Z,2185
2016-07-19T12:19:21.001Z,2220
2016-07-19T12:20:21.726Z,2265
2016-07-19T12:21:22.440Z,2335
2016-07-19T12:22:22.435Z,2360
2016-07-19T12:23:23.161Z,2345
2016-07-19T12:24:22.459Z,2330
2016-07-19T12:25:22.504Z,2320
2016-07-19T12:26:21.784Z,2315
2016-07-19T12:27:21.778Z,2290
2016-07-19T12:28:22.516Z,2200
2016-07-19T12:29:21.807Z,2100
2016-07-19T12:30:23.218Z,1935
2016-07-19T12:31:23.932Z,1845
2016-07-19T12:32:21.812Z,1920
2016-07-19T12:33:22.534Z,2005
2016-07-19T12:34:22.590Z,2065
2016-07-19T12:35:23.473Z,2110
2016-07-19T12:36:21.840Z,2075
2016-07-19T12:37:21.125Z,2065
2016-07-19T12:38:23.265Z,2070
2016-07-19T12:39:22.561Z,2050
2016-07-19T12:40:22.576Z,2035
2016-07-19T12:41:22.579Z,2045
2016-07-19T12:42:21.887Z,2080
2016-07-19T12:43:24.010Z,2115
2016-07-19T12:44:21.889Z,2145
2016-07-19T12:45:21.907Z,2170
2016-07-19T12:46:22.622Z,2165
2016-07-19T12:47:22.620Z,2175
2016-07-19T12:48:22.632Z,2170
2016-07-19T12:49:21.934Z,2180
2016-07-19T12:50:21.950Z,2175
2016-07-19T12:51:21.945Z,2135
2016-07-19T12:52:22.671Z,2135
2016-07-19T12:53:22.017Z,2175
2016-07-19T12:54:22.687Z,2180
2016-07-19T12:55:21.270Z,2165
2016-07-19T12:56:23.461Z,2125
2016-07-19T12:57:22.715Z,2075
2016-07-19T12:58:21.999Z,2055
2016-07-19T12:59:22.724Z,2065
2016-07-19T13:00:22.030Z,2080
2016-07-19T13:01:22.068Z,2100
2016-07-19T13:02:22.061Z,2150
2016-07-19T13:03:22.034Z,2215
2016-07-19T13:04:22.051Z,2285
2016-07-19T13:05:22.061Z,2270
2016-07-19T13:06:22.060Z,2190
2016-07-19T13:07:22.788Z,2085
2016-07-19T13:08:22.092Z,2040
2016-07-19T13:09:23.495Z,2060
2016-07-19T13:10:22.096Z,2080
2016-07-19T13:11:22.813Z,2110
2016-07-19T13:12:22.112Z,2120
2016-07-19T13:13:22.122Z,2100
2016-07-19T13:14:22.142Z,2080
2016-07-19T13:15:23.548Z,2050
2016-07-19T13:16:22.143Z,2060
2016-07-19T13:17:22.158Z,2065
2016-07-19T13:18:22.165Z,2070
2016-07-19T13:19:22.174Z,2075
2016-07-19T13:20:22.179Z,2060
2016-07-19T13:21:22.900Z,2050
2016-07-19T13:22:23.606Z,2050
2016-07-19T13:23:22.203Z,2035
2016-07-19T13:24:22.209Z,2020
2016-07-19T13:25:22.931Z,1995
2016-07-19T13:26:22.282Z,1955
2016-07-19T13:27:22.932Z,1970
2016-07-19T13:28:23.658Z,2005
2016-07-19T13:29:21.536Z,2035
2016-07-19T13:30:22.963Z,2055
2016-07-19T13:31:22.279Z,2060
2016-07-19T13:32:23.034Z,2045
2016-07-19T13:33:22.284Z,2005
2016-07-19T13:34:23.001Z,1990
2016-07-19T13:35:23.718Z,1980
2016-07-19T13:36:23.021Z,1945
2016-07-19T13:37:22.306Z,1945
2016-07-19T13:38:23.018Z,1940
2016-07-19T13:39:22.338Z,1940
2016-07-19T13:40:23.743Z,1955
2016-07-19T13:41:23.746Z,1975
2016-07-19T13:42:23.053Z,1990
2016-07-19T13:43:23.059Z,2015
2016-07-19T13:44:22.358Z,2035
2016-07-19T13:45:22.369Z,2040
2016-07-19T13:46:23.082Z,2020
2016-07-19T13:47:22.378Z,1980
2016-07-19T13:48:22.383Z,1925
2016-07-19T13:49:21.696Z,1905
2016-07-19T13:50:24.525Z,1885
2016-07-19T13:51:22.415Z,1870
2016-07-19T13:52:22.417Z,1855
2016-07-19T13:53:23.153Z,1855
2016-07-19T13:54:23.135Z,1895
2016-07-19T13:55:23.148Z,1930
2016-07-19T13:56:23.160Z,1950
2016-07-19T13:57:22.450Z,1935
2016-07-19T13:58:23.180Z,1910
2016-07-19T13:59:23.189Z,1880